createdAt,value
2018-07-21T00:01:41.091Z,209.17
2018-07-21T00:04:08.258Z,212.07
2018-07-21T00:06:35.462Z,218.87
2018-07-21T00:09:03.923Z,212.23
2018-07-21T00:11:31.031Z,201.53
2018-07-21T00:13:58.146Z,233.53
2018-07-21T00:16:25.254Z,208.83
2018-07-21T00:18:52.358Z,201.97
2018-07-21T00:21:19.486Z,216.67
2018-07-21T00:23:46.594Z,204.33
2018-07-21T00:26:13.702Z,199.50
2018-07-21T00:28:40.798Z,219.07
2018-07-21T00:31:08.026Z,196.63
2018-07-21T00:33:35.134Z,198.67
2018-07-21T00:36:02.255Z,203.00
2018-07-21T00:38:29.367Z,191.00
2018-07-21T00:40:56.494Z,225.10
2018-07-21T00:43:23.618Z,196.43
2018-07-21T00:45:50.785Z,198.33
2018-07-21T00:48:17.889Z,203.67
2018-07-21T00:50:45.000Z,194.70
2018-07-21T00:53:12.121Z,205.10
2018-07-21T00:55:39.229Z,185.57
2018-07-21T00:58:06.357Z,218.87
2018-07-21T01:00:33.538Z,202.37
2018-07-21T01:03:00.626Z,189.77
2018-07-21T01:05:27.746Z,195.23
2018-07-21T01:07:54.846Z,193.63
2018-07-21T01:10:21.985Z,200.53
2018-07-21T01:12:49.178Z,193.23
2018-07-21T01:15:16.337Z,186.47
2018-07-21T01:17:43.503Z,189.00
2018-07-21T01:20:10.699Z,184.67
2018-07-21T01:22:37.846Z,203.63
2018-07-21T01:25:05.749Z,186.30
2018-07-21T01:27:32.883Z,213.00
2018-07-21T01:30:00.032Z,207.13
2018-07-21T01:32:27.198Z,197.43
2018-07-21T01:34:54.369Z,192.50
2018-07-21T01:37:21.510Z,192.07
2018-07-21T01:39:48.666Z,206.87
2018-07-21T01:42:15.805Z,200.57
2018-07-21T01:44:42.952Z,188.33
2018-07-21T01:47:10.161Z,186.17
2018-07-21T01:49:37.317Z,193.67
2018-07-21T01:52:04.505Z,193.63
2018-07-21T01:54:31.645Z,183.50
2018-07-21T01:56:58.795Z,192.07
2018-07-21T01:59:25.929Z,191.33
2018-07-21T02:01:53.063Z,183.03
2018-07-21T02:04:20.179Z,182.40
2018-07-21T02:06:47.305Z,192.50
2018-07-21T02:09:14.434Z,210.83
2018-07-21T02:11:41.566Z,186.93
2018-07-21T02:14:08.744Z,181.90
2018-07-21T02:16:35.930Z,190.77
2018-07-21T02:19:03.392Z,196.10
2018-07-21T02:21:30.549Z,197.93
2018-07-21T02:23:57.649Z,197.60
2018-07-21T02:26:24.783Z,189.00
2018-07-21T02:28:51.915Z,189.67
2018-07-21T02:31:19.173Z,209.80
2018-07-21T02:33:46.290Z,191.27
2018-07-21T02:36:13.514Z,188.67
2018-07-21T02:38:40.661Z,208.93
2018-07-21T02:41:07.794Z,222.03
2018-07-21T02:43:34.926Z,192.60
2018-07-21T02:46:02.059Z,188.03
2018-07-21T02:48:29.193Z,199.37
2018-07-21T02:50:56.326Z,195.60
2018-07-21T02:53:23.459Z,196.60
2018-07-21T02:55:50.573Z,195.93
2018-07-21T02:58:17.693Z,187.47
2018-07-21T03:00:44.822Z,188.63
2018-07-21T03:03:11.967Z,190.43
2018-07-21T03:05:39.083Z,192.90
2018-07-21T03:08:06.325Z,193.87
2018-07-21T03:10:33.465Z,213.13
2018-07-21T03:13:00.593Z,206.13
2018-07-21T03:15:27.723Z,200.80
2018-07-21T03:17:54.833Z,200.30
2018-07-21T03:20:21.987Z,197.83
2018-07-21T03:22:49.127Z,196.67
2018-07-21T03:25:16.238Z,198.67
2018-07-21T03:27:43.346Z,205.27
2018-07-21T03:30:10.477Z,202.60
2018-07-21T03:32:37.594Z,206.23
2018-07-21T03:35:04.759Z,201.00
2018-07-21T03:37:31.890Z,201.37
2018-07-21T03:39:59.156Z,195.30
2018-07-21T03:42:26.273Z,189.23
2018-07-21T03:44:53.381Z,188.00
2018-07-21T03:47:20.497Z,193.33
2018-07-21T03:49:47.605Z,190.17
2018-07-21T03:52:14.995Z,192.67
2018-07-21T03:54:42.133Z,202.53
2018-07-21T03:57:09.271Z,201.47
2018-07-21T03:59:36.402Z,212.20
2018-07-21T04:02:03.554Z,196.43
2018-07-21T04:04:30.681Z,195.93
2018-07-21T04:06:57.793Z,194.67
2018-07-21T04:09:24.902Z,194.20
2018-07-21T04:11:52.025Z,206.13
2018-07-21T04:14:19.179Z,190.00
2018-07-21T04:16:46.302Z,194.07
2018-07-21T04:19:13.442Z,203.40
2018-07-21T04:21:40.649Z,202.90
2018-07-21T04:24:07.798Z,190.93
2018-07-21T04:26:34.904Z,198.63
2018-07-21T04:29:02.062Z,192.40
2018-07-21T04:31:29.177Z,197.03
2018-07-21T04:33:56.357Z,184.53
2018-07-21T04:36:23.645Z,189.20
2018-07-21T04:38:50.756Z,199.27
2018-07-21T04:41:17.907Z,188.97
2018-07-21T04:43:45.059Z,185.47
2018-07-21T04:46:12.157Z,189.90
2018-07-21T04:48:39.270Z,199.47
2018-07-21T04:51:06.921Z,187.97
2018-07-21T04:53:34.055Z,181.97
2018-07-21T04:56:01.303Z,206.27
2018-07-21T04:58:28.458Z,184.57
2018-07-21T05:00:55.690Z,193.13
2018-07-21T05:03:22.765Z,193.70
2018-07-21T05:05:49.951Z,219.20
2018-07-21T05:08:17.119Z,191.07
2018-07-21T05:10:44.335Z,183.07
2018-07-21T05:13:11.482Z,204.17
2018-07-21T05:15:38.676Z,180.93
2018-07-21T05:18:05.859Z,183.70
2018-07-21T05:20:33.010Z,208.07
2018-07-21T05:23:00.154Z,182.77
2018-07-21T05:25:27.317Z,184.20
2018-07-21T05:27:54.458Z,176.73
2018-07-21T05:30:21.626Z,188.17
2018-07-21T05:32:48.767Z,181.27
2018-07-21T05:35:15.906Z,195.93
2018-07-21T05:37:43.109Z,200.70
2018-07-21T05:40:10.449Z,195.40
2018-07-21T05:42:37.613Z,180.47
2018-07-21T05:45:04.931Z,190.33
2018-07-21T05:47:32.069Z,194.80
2018-07-21T05:49:59.235Z,193.73
2018-07-21T05:52:26.381Z,195.07
2018-07-21T05:54:53.536Z,198.63
2018-07-21T05:57:20.689Z,197.10
2018-07-21T05:59:47.941Z,192.67
2018-07-21T06:02:15.087Z,191.63
2018-07-21T06:04:42.309Z,187.43
2018-07-21T06:07:09.471Z,189.07
2018-07-21T06:09:36.626Z,183.60
2018-07-21T06:12:03.828Z,196.40
2018-07-21T06:14:30.979Z,177.53
2018-07-21T06:16:58.135Z,178.70
2018-07-21T06:19:25.282Z,188.10
2018-07-21T06:21:52.422Z,185.77
2018-07-21T06:24:19.595Z,178.60
2018-07-21T06:26:46.737Z,189.27
2018-07-21T06:29:13.886Z,180.60
2018-07-21T06:31:41.055Z,186.57
2018-07-21T06:34:08.198Z,180.63
2018-07-21T06:36:35.361Z,185.07
2018-07-21T06:39:02.697Z,181.03
2018-07-21T06:41:29.859Z,190.40
2018-07-21T06:43:57.045Z,184.07
2018-07-21T06:46:24.135Z,200.53
2018-07-21T06:48:51.282Z,194.67
2018-07-21T06:51:18.449Z,194.97
2018-07-21T06:53:45.645Z,191.33
2018-07-21T06:56:12.785Z,181.23
2018-07-21T06:58:39.914Z,194.57
2018-07-21T07:01:07.082Z,184.30
2018-07-21T07:03:34.202Z,192.77
2018-07-21T07:06:01.453Z,191.93
2018-07-21T07:08:28.615Z,201.83
2018-07-21T07:10:57.060Z,195.10
2018-07-21T07:13:24.217Z,198.03
2018-07-21T07:15:51.425Z,216.10
2018-07-21T07:18:18.551Z,217.97
2018-07-21T07:20:45.685Z,212.63
2018-07-21T07:23:12.870Z,197.80
2018-07-21T07:25:40.022Z,201.67
2018-07-21T07:28:07.650Z,213.90
2018-07-21T07:30:34.768Z,200.60
2018-07-21T07:33:01.951Z,215.20
2018-07-21T07:35:29.070Z,210.37
2018-07-21T07:37:56.195Z,201.83
2018-07-21T07:40:23.913Z,226.90
2018-07-21T07:42:51.041Z,215.63
2018-07-21T07:45:18.274Z,201.50
2018-07-21T07:47:45.394Z,206.20
2018-07-21T07:50:12.528Z,222.43
2018-07-21T07:52:39.715Z,233.23
2018-07-21T07:55:07.043Z,206.30
2018-07-21T07:57:34.379Z,209.67
2018-07-21T08:00:01.611Z,217.50
2018-07-21T08:02:28.838Z,217.90
2018-07-21T08:04:56.011Z,220.30
2018-07-21T08:07:23.299Z,222.47
2018-07-21T08:09:50.583Z,249.03
2018-07-21T08:12:17.726Z,223.10
2018-07-21T08:14:44.909Z,230.73
2018-07-21T08:17:12.198Z,226.93
2018-07-21T08:19:39.369Z,242.13
2018-07-21T08:22:06.969Z,230.97
2018-07-21T08:24:34.172Z,246.67
2018-07-21T08:27:01.325Z,224.50
2018-07-21T08:29:28.493Z,245.70
2018-07-21T08:31:55.641Z,238.47
2018-07-21T08:34:22.785Z,234.47
2018-07-21T08:36:49.954Z,234.33
2018-07-21T08:39:17.197Z,231.93
2018-07-21T08:41:44.342Z,230.90
2018-07-21T08:44:11.514Z,229.77
2018-07-21T08:46:38.710Z,230.03
2018-07-21T08:49:05.884Z,229.87
2018-07-21T08:51:33.046Z,264.53
2018-07-21T08:54:00.216Z,238.83
2018-07-21T08:56:27.428Z,227.93
2018-07-21T08:58:54.587Z,255.67
2018-07-21T09:01:21.748Z,240.97
2018-07-21T09:03:48.953Z,241.87
2018-07-21T09:06:16.109Z,247.17
2018-07-21T09:08:43.331Z,235.33
2018-07-21T09:11:10.502Z,228.93
2018-07-21T09:13:37.670Z,235.50
2018-07-21T09:16:04.838Z,224.93
2018-07-21T09:18:32.014Z,227.10
2018-07-21T09:20:59.170Z,221.40
2018-07-21T09:23:26.301Z,221.30
2018-07-21T09:25:53.735Z,220.00
2018-07-21T09:28:20.879Z,231.83
2018-07-21T09:30:48.249Z,236.50
2018-07-21T09:33:15.454Z,233.10
2018-07-21T09:35:42.589Z,253.70
2018-07-21T09:38:09.725Z,242.80
2018-07-21T09:40:36.870Z,234.50
2018-07-21T09:43:04.037Z,258.30
2018-07-21T09:45:31.206Z,230.67
2018-07-21T09:47:58.342Z,252.43
2018-07-21T09:50:25.486Z,250.67
2018-07-21T09:52:52.627Z,241.93
2018-07-21T09:55:19.790Z,256.43
2018-07-21T09:57:46.946Z,232.43
2018-07-21T10:00:19.797Z,227.73
2018-07-21T10:02:46.919Z,219.37
2018-07-21T10:05:14.075Z,219.30
2018-07-21T10:07:41.189Z,218.80
2018-07-21T10:10:08.313Z,223.63
2018-07-21T10:12:35.474Z,222.67
2018-07-21T10:15:02.671Z,220.10
2018-07-21T10:17:29.830Z,201.43
2018-07-21T10:19:56.961Z,204.63
2018-07-21T10:22:24.073Z,194.30
2018-07-21T10:24:56.889Z,204.70
2018-07-21T10:27:28.634Z,182.63
2018-07-21T10:29:55.759Z,199.17
2018-07-21T10:32:22.902Z,206.83
2018-07-21T10:34:50.018Z,194.77
2018-07-21T10:37:17.137Z,201.20
2018-07-21T10:39:44.267Z,182.93
2018-07-21T10:42:11.399Z,183.63
2018-07-21T10:44:38.604Z,181.87
2018-07-21T10:47:05.761Z,197.80
2018-07-21T10:49:32.882Z,203.03
2018-07-21T10:52:00.187Z,192.10
2018-07-21T10:54:27.374Z,177.40
2018-07-21T10:56:54.503Z,195.17
2018-07-21T10:59:21.654Z,175.17
2018-07-21T11:01:48.935Z,200.80
2018-07-21T11:04:16.079Z,182.63
2018-07-21T11:06:43.217Z,182.13
2018-07-21T11:09:11.114Z,193.90
2018-07-21T11:11:38.762Z,183.17
2018-07-21T11:14:05.950Z,178.77
2018-07-21T11:16:33.142Z,197.80
2018-07-21T11:19:00.295Z,186.60
2018-07-21T11:21:27.558Z,194.07
2018-07-21T11:23:54.721Z,185.23
2018-07-21T11:26:21.866Z,173.70
2018-07-21T11:28:49.062Z,183.40
2018-07-21T11:31:16.437Z,199.57
2018-07-21T11:33:43.604Z,197.57
2018-07-21T11:36:11.031Z,197.10
2018-07-21T11:38:37.983Z,183.63
2018-07-21T11:41:05.154Z,190.80
2018-07-21T11:43:32.327Z,187.90
2018-07-21T11:45:59.490Z,202.07
2018-07-21T11:48:26.711Z,211.60
2018-07-21T11:50:53.873Z,196.00
2018-07-21T11:53:21.023Z,203.03
2018-07-21T11:55:48.166Z,197.40
2018-07-21T11:58:15.322Z,203.10
2018-07-21T12:00:42.515Z,212.20
2018-07-21T12:03:09.742Z,196.60
2018-07-21T12:05:36.922Z,207.33
2018-07-21T12:08:04.071Z,200.70
2018-07-21T12:10:31.238Z,199.70
2018-07-21T12:12:58.461Z,200.87
2018-07-21T12:15:25.569Z,205.20
2018-07-21T12:17:52.723Z,195.20
2018-07-21T12:20:20.022Z,219.83
2018-07-21T12:22:47.122Z,204.13
2018-07-21T12:25:14.375Z,230.50
2018-07-21T12:27:41.591Z,211.13
2018-07-21T12:30:08.679Z,219.33
2018-07-21T12:32:35.836Z,216.10
2018-07-21T12:35:03.035Z,210.73
2018-07-21T12:37:30.210Z,207.03
2018-07-21T12:39:57.395Z,210.23
2018-07-21T12:42:24.521Z,213.07
2018-07-21T12:44:51.729Z,223.13
2018-07-21T12:47:18.974Z,222.23
2018-07-21T12:49:46.142Z,226.77
2018-07-21T12:52:13.331Z,250.80
2018-07-21T12:54:40.486Z,233.97
2018-07-21T12:57:07.707Z,250.23
2018-07-21T12:59:34.885Z,236.07
2018-07-21T13:02:02.035Z,242.07
2018-07-21T13:04:29.198Z,249.87
2018-07-21T13:06:56.400Z,248.43
2018-07-21T13:09:23.577Z,254.47
2018-07-21T13:11:50.727Z,268.40
2018-07-21T13:14:17.904Z,280.60
2018-07-21T13:16:45.196Z,271.43
2018-07-21T13:19:12.398Z,270.53
2018-07-21T13:21:39.590Z,266.97
2018-07-21T13:24:06.785Z,270.00
2018-07-21T13:26:34.047Z,268.23
2018-07-21T13:29:01.256Z,296.77
2018-07-21T13:31:28.437Z,298.70
2018-07-21T13:33:55.591Z,282.87
2018-07-21T13:36:22.742Z,321.30
2018-07-21T13:38:50.019Z,332.57
2018-07-21T13:41:17.231Z,354.83
2018-07-21T13:43:44.434Z,331.50
2018-07-21T13:46:11.616Z,330.73
2018-07-21T13:48:38.761Z,341.20
2018-07-21T13:51:06.391Z,340.60
2018-07-21T13:53:33.566Z,317.83
2018-07-21T13:56:00.774Z,335.83
2018-07-21T13:58:27.933Z,303.93
2018-07-21T14:00:55.110Z,300.47
2018-07-21T14:03:22.280Z,312.67
2018-07-21T14:05:49.384Z,316.50
2018-07-21T14:08:16.498Z,336.47
2018-07-21T14:10:43.621Z,345.97
2018-07-21T14:13:10.743Z,328.23
2018-07-21T14:15:37.878Z,362.23
2018-07-21T14:18:05.326Z,346.27
2018-07-21T14:20:32.481Z,327.23
2018-07-21T14:22:59.617Z,338.60
2018-07-21T14:25:26.738Z,353.27
2018-07-21T14:27:53.850Z,330.03
2018-07-21T14:30:20.989Z,323.80
2018-07-21T14:32:48.102Z,321.17
2018-07-21T14:35:15.280Z,336.40
2018-07-21T14:37:42.397Z,346.57
2018-07-21T14:40:09.550Z,334.33
2018-07-21T14:42:36.694Z,344.23
2018-07-21T14:45:04.085Z,317.43
2018-07-21T14:47:31.244Z,320.80
2018-07-21T14:49:58.370Z,341.93
2018-07-21T14:52:25.498Z,328.13
2018-07-21T14:54:52.728Z,328.27
2018-07-21T14:57:19.790Z,336.33
2018-07-21T14:59:46.925Z,341.23
2018-07-21T15:02:14.070Z,353.03
2018-07-21T15:04:41.211Z,348.17
2018-07-21T15:07:08.482Z,373.63
2018-07-21T15:09:35.694Z,372.60
2018-07-21T15:12:02.838Z,401.77
2018-07-21T15:14:29.985Z,363.27
2018-07-21T15:16:57.139Z,385.03
2018-07-21T15:19:24.289Z,358.30
2018-07-21T15:21:51.439Z,370.37
2018-07-21T15:24:18.598Z,400.27
2018-07-21T15:26:45.786Z,369.53
2018-07-21T15:29:12.937Z,383.37
2018-07-21T15:31:40.097Z,397.77
2018-07-21T15:34:07.709Z,400.00
2018-07-21T15:36:34.898Z,382.03
2018-07-21T15:39:02.065Z,402.77
2018-07-21T15:41:29.227Z,380.37
2018-07-21T15:43:56.389Z,375.10
2018-07-21T15:46:23.525Z,377.07
2018-07-21T15:48:50.666Z,368.40
2018-07-21T15:51:17.814Z,390.07
2018-07-21T15:53:44.975Z,374.70
2018-07-21T15:56:12.154Z,352.77
2018-07-21T15:58:39.314Z,372.97
2018-07-21T16:01:06.662Z,357.03
2018-07-21T16:03:33.794Z,342.67
2018-07-21T16:06:00.950Z,346.53
2018-07-21T16:08:28.106Z,335.53
2018-07-21T16:10:55.313Z,325.77
2018-07-21T16:13:22.439Z,317.93
2018-07-21T16:15:49.581Z,320.73
2018-07-21T16:18:16.737Z,341.37
2018-07-21T16:20:43.878Z,315.33
2018-07-21T16:23:11.069Z,338.53
2018-07-21T16:25:38.201Z,309.77
2018-07-21T16:28:05.434Z,303.30
2018-07-21T16:30:32.595Z,312.37
2018-07-21T16:32:59.778Z,318.30
2018-07-21T16:35:26.971Z,324.20
2018-07-21T16:37:54.127Z,317.63
2018-07-21T16:40:21.271Z,307.43
2018-07-21T16:42:48.422Z,293.57
2018-07-21T16:45:15.579Z,320.50
2018-07-21T16:47:42.722Z,305.23
2018-07-21T16:50:09.894Z,286.80
2018-07-21T16:52:37.050Z,300.53
2018-07-21T16:55:04.244Z,282.23
2018-07-21T16:57:31.400Z,270.57
2018-07-21T16:59:58.606Z,283.20
2018-07-21T17:02:25.757Z,269.80
2018-07-21T17:04:53.102Z,267.37
2018-07-21T17:07:20.271Z,267.87
2018-07-21T17:09:47.421Z,268.43
2018-07-21T17:12:14.580Z,275.07
2018-07-21T17:14:41.755Z,253.93
2018-07-21T17:17:08.909Z,261.70
2018-07-21T17:19:36.054Z,248.60
2018-07-21T17:22:03.205Z,247.10
2018-07-21T17:24:30.367Z,262.50
2018-07-21T17:26:57.514Z,251.97
2018-07-21T17:29:24.793Z,242.80
2018-07-21T17:31:51.869Z,234.73
2018-07-21T17:34:19.041Z,220.53
2018-07-21T17:36:46.178Z,244.53
2018-07-21T17:39:13.340Z,241.83
2018-07-21T17:41:40.771Z,224.27
2018-07-21T17:44:08.130Z,203.20
2018-07-21T17:46:35.322Z,208.47
2018-07-21T17:49:02.735Z,208.37
2018-07-21T17:51:29.907Z,187.70
2018-07-21T17:53:57.053Z,178.57
2018-07-21T17:56:24.185Z,179.20
2018-07-21T17:58:51.352Z,193.40
2018-07-21T18:01:19.257Z,167.90
2018-07-21T18:03:46.429Z,193.10
2018-07-21T18:06:13.539Z,169.20
2018-07-21T18:08:40.676Z,167.53
2018-07-21T18:11:07.802Z,172.80
2018-07-21T18:13:34.957Z,178.90
2018-07-21T18:16:02.105Z,165.90
2018-07-21T18:18:29.209Z,162.17
2018-07-21T18:20:56.392Z,166.40
2018-07-21T18:23:23.579Z,167.27
2018-07-21T18:25:50.711Z,178.20
2018-07-21T18:28:17.853Z,171.10
2018-07-21T18:30:44.974Z,170.07
2018-07-21T18:33:12.147Z,167.23
2018-07-21T18:35:39.343Z,156.50
2018-07-21T18:38:06.577Z,163.70
2018-07-21T18:40:33.888Z,165.63
2018-07-21T18:43:01.143Z,154.90
2018-07-21T18:45:28.331Z,167.63
2018-07-21T18:47:55.521Z,160.90
2018-07-21T18:50:22.705Z,163.00
2018-07-21T18:52:49.998Z,162.23
2018-07-21T18:55:17.182Z,167.60
2018-07-21T18:57:44.399Z,163.83
2018-07-21T19:00:11.598Z,160.40
2018-07-21T19:02:38.777Z,160.70
2018-07-21T19:05:05.927Z,170.37
2018-07-21T19:07:33.071Z,171.40
2018-07-21T19:10:00.339Z,160.20
2018-07-21T19:12:33.246Z,168.87
2018-07-21T19:15:00.385Z,144.63
2018-07-21T19:17:27.503Z,165.93
2018-07-21T19:20:00.462Z,172.67
2018-07-21T19:22:27.583Z,173.13
2018-07-21T19:24:54.727Z,164.27
2018-07-21T19:27:27.520Z,166.70
2018-07-21T19:29:54.665Z,161.43
2018-07-21T19:32:27.443Z,140.63
2018-07-21T19:34:54.594Z,171.13
2018-07-21T19:37:27.557Z,186.90
2018-07-21T19:39:54.676Z,172.90
2018-07-21T19:42:21.797Z,174.53
2018-07-21T19:44:48.929Z,186.30
2018-07-21T19:47:16.081Z,172.73
2018-07-21T19:49:43.165Z,169.30
2018-07-21T19:52:10.298Z,178.67
2018-07-21T19:54:37.423Z,171.70
2018-07-21T19:57:04.706Z,174.67
2018-07-21T19:59:31.889Z,171.23
2018-07-21T20:01:59.030Z,172.63
2018-07-21T20:04:26.171Z,152.30
2018-07-21T20:06:53.338Z,174.33
2018-07-21T20:09:20.477Z,171.43
2018-07-21T20:11:47.618Z,148.53
2018-07-21T20:14:14.758Z,172.20
2018-07-21T20:16:41.918Z,144.40
2018-07-21T20:19:09.055Z,174.77
2018-07-21T20:21:36.233Z,176.03
2018-07-21T20:24:03.460Z,160.67
2018-07-21T20:26:30.561Z,155.23
2018-07-21T20:28:57.701Z,189.60
2018-07-21T20:31:24.958Z,173.47
2018-07-21T20:33:52.137Z,179.80
2018-07-21T20:36:19.327Z,180.03
2018-07-21T20:38:46.493Z,156.13
2018-07-21T20:41:13.649Z,173.97
2018-07-21T20:43:40.844Z,178.33
2018-07-21T20:46:07.962Z,190.20
2018-07-21T20:48:35.111Z,192.40
2018-07-21T20:51:02.250Z,183.00
2018-07-21T20:53:29.430Z,181.67
2018-07-21T20:55:56.866Z,174.30
2018-07-21T20:58:24.014Z,155.37
2018-07-21T21:00:51.216Z,154.07
2018-07-21T21:03:18.325Z,180.17
2018-07-21T21:05:45.441Z,185.13
2018-07-21T21:08:12.662Z,183.47
2018-07-21T21:10:39.845Z,186.57
2018-07-21T21:13:07.334Z,167.63
2018-07-21T21:15:34.509Z,190.23
2018-07-21T21:18:01.670Z,197.37
2018-07-21T21:20:28.791Z,163.97
2018-07-21T21:22:55.909Z,191.83
2018-07-21T21:25:23.022Z,204.93
2018-07-21T21:27:50.146Z,204.70
2018-07-21T21:30:17.286Z,174.30
2018-07-21T21:32:44.402Z,209.73
2018-07-21T21:35:11.530Z,192.07
2018-07-21T21:37:38.753Z,211.87
2018-07-21T21:40:05.941Z,225.07
2018-07-21T21:42:33.165Z,234.47
2018-07-21T21:45:00.246Z,234.23
2018-07-21T21:47:27.378Z,238.97
2018-07-21T21:49:54.563Z,238.20
2018-07-21T21:52:21.717Z,196.93
2018-07-21T21:54:48.851Z,242.07
2018-07-21T21:57:15.994Z,266.50
2018-07-21T21:59:43.159Z,223.33
2018-07-21T22:02:10.542Z,221.30
2018-07-21T22:04:37.757Z,278.33
2018-07-21T22:07:04.843Z,266.93
2018-07-21T22:09:31.973Z,278.53
2018-07-21T22:11:59.139Z,257.90
2018-07-21T22:14:26.271Z,305.53
2018-07-21T22:16:53.418Z,214.30
2018-07-21T22:19:20.574Z,279.03
2018-07-21T22:21:47.703Z,232.17
2018-07-21T22:24:14.867Z,233.47
2018-07-21T22:26:41.994Z,278.60
2018-07-21T22:29:09.129Z,276.40
2018-07-21T22:31:36.261Z,259.30
2018-07-21T22:34:03.434Z,276.47
2018-07-21T22:36:30.589Z,278.33
2018-07-21T22:38:57.735Z,272.73
2018-07-21T22:41:24.858Z,257.43
2018-07-21T22:43:51.977Z,280.80
2018-07-21T22:46:19.107Z,259.73
2018-07-21T22:48:46.238Z,285.03
2018-07-21T22:51:13.381Z,279.00
2018-07-21T22:53:40.522Z,286.27
2018-07-21T22:56:07.646Z,238.30
2018-07-21T22:58:34.792Z,306.77
2018-07-21T23:01:02.153Z,307.33
2018-07-21T23:03:29.296Z,310.70
2018-07-21T23:05:56.437Z,340.27
2018-07-21T23:08:23.557Z,332.37
2018-07-21T23:10:50.691Z,304.67
2018-07-21T23:13:17.832Z,310.33
2018-07-21T23:15:44.969Z,316.50
2018-07-21T23:18:12.111Z,316.57
2018-07-21T23:20:39.250Z,327.57
2018-07-21T23:23:06.402Z,332.13
2018-07-21T23:25:33.538Z,293.40
2018-07-21T23:28:00.661Z,327.10
2018-07-21T23:30:27.810Z,312.10
2018-07-21T23:32:54.925Z,329.03
2018-07-21T23:35:22.062Z,317.03
2018-07-21T23:37:49.173Z,319.20
2018-07-21T23:40:16.341Z,310.87
2018-07-21T23:42:43.488Z,274.07
2018-07-21T23:45:10.613Z,273.33
2018-07-21T23:47:37.757Z,217.43
2018-07-21T23:50:05.030Z,241.07
2018-07-21T23:52:32.253Z,283.53
2018-07-21T23:54:59.498Z,290.67
2018-07-21T23:57:26.713Z,295.40
2018-07-21T23:59:53.905Z,278.90
